Station: Albury  

  Atmospheric Gas Attenuation - ITU Rec 676-11   ----------------- dB/100km -----------------
Date Time Temp RH % AH g/m3 Dew Point Wind Direction Speed kph Gust kph Barometer mB Rainfall Since 9am 24GHz 47GHz 76GHz 122GHz 134GHz 241GHz
08/05 12:30 14.6 75 9.39 10.2 13 19 1021.1 0 21.2 27.2 42.9 112.8 108.6 374.0
08/05 12:20 14.2 76 9.28 10 11 13 1021.3 0 21.0 27.2 42.7 112.1 107.6 370.8
08/05 12:10 13.7 77 9.12 9.7 13 17 1021.5 0 20.7 27.1 42.3 111.1 106.2 365.6
08/05 12:00 13.6 77 9.06 9.6 13 19 1021.5 0 20.6 27.0 42.1 110.6 105.5 363.3
08/05 11:50 13.4 77 8.95 9.5 17 20 1021.5 0 20.3 26.9 41.8 109.7 104.3 359.0
08/05 11:40 13.1 79 9.02 9.5 13 15 1021.7 0 20.5 27.1 42.3 110.9 105.7 363.7
08/05 11:30 12.7 80 8.91 9.3 15 22 1021.7 0 20.3 27.1 42.0 110.2 104.7 360.3
08/05 11:20 12.4 80 8.74 9.1 17 20 1021.6 0 19.9 26.9 41.5 108.8 102.8 353.6
08/05 11:10 12.6 81 8.96 9.4 20 24 1021.6 0 20.4 27.2 42.3 110.9 105.5 363.2
08/05 11:00 12.1 82 8.79 9.1 20 28 1021.6 0 20.1 27.0 41.8 109.7 103.9 357.3
08/05 10:50 12 83 8.85 9.2 17 22 1021.7 0 20.2 27.2 42.1 110.6 104.8 360.7
08/05 10:40 11.5 84 8.68 8.9 20 24 1021.8 0 19.9 27.0 41.7 109.4 103.2 354.9
08/05 10:30 11.4 84 8.62 8.8 17 24 1021.8 0 19.7 27.0 41.5 108.8 102.5 352.4
08/05 10:20 11.3 86 8.77 9 15 20 1021.8 0 20.1 27.3 42.2 110.7 104.7 360.1
08/05 10:10 11.1 87 8.76 9 20 26 1021.8 0 20.1 27.3 42.2 110.8 104.8 360.6
08/05 10:00 10.8 87 8.6 8.7 22 32 1021.8 0 19.7 27.1 41.7 109.5 103.0 354.2
08/05 09:50 10.7 89 8.74 9 22 30 1021.8 0 20.0 27.4 42.4 111.2 105.1 361.4
08/05 09:40 10.7 89 8.74 9 26 28 1021.9 0 20.0 27.4 42.4 111.2 105.1 361.5
08/05 09:30 10.7 86 8.45 8.5 22 32 1022.1 0 19.4 26.9 41.2 107.9 101.1 347.5
08/05 09:20 10.5 88 8.54 8.6 28 32 1022.1 0 19.6 27.1 41.7 109.2 102.6 352.7
08/05 09:10 10.5 88 8.54 8.6 20 24 1022.1 0 19.6 27.1 41.7 109.2 102.6 352.7
08/05 09:00 10.5 88 8.54 8.6 20 28 1022 0 19.6 27.1 41.6 109.2 102.6 352.7
08/05 08:50 10.4 88 8.48 8.5 15 17 1021.9 0 19.5 27.0 41.4 108.7 101.9 350.2
08/05 08:40 10.1 90 8.51 8.5 19 22 1021.9 0 19.6 27.2 41.7 109.4 102.7 353.0
08/05 08:30 10.2 90 8.57 8.6 17 28 1021.9 0 19.7 27.3 41.9 110.0 103.4 355.5
08/05 08:20 10.1 88 8.32 8.2 22 30 1021.9 0 19.2 26.9 40.9 107.3 100.1 343.8
08/05 08:10 10.3 86 8.24 8.1 17 22 1021.8 0 19.0 26.7 40.5 106.1 98.7 339.0
08/05 08:00 10.2 85 8.09 7.8 19 28 1021.8 0 18.7 26.4 39.9 104.6 96.8 332.2
08/05 07:50 10.1 84 7.95 7.5 20 30 1021.8 0 18.4 26.2 39.4 103.2 95.0 325.9
08/05 07:40 10.1 83 7.85 7.3 19 22 1021.6 0 18.1 26.1 39.0 102.0 93.6 321.1
08/05 07:30 10.2 81 7.71 7.1 20 32 1021.5 0 17.8 25.8 38.3 100.4 91.6 314.1
08/05 07:20 10.3 81 7.76 7.2 26 30 1021.5 0 17.9 25.9 38.5 100.8 92.1 316.0
08/05 07:10 10.2 80 7.61 6.9 19 22 1021.5 0 17.6 25.6 37.9 99.3 90.2 309.3
08/05 07:00 10.2 80 7.61 6.9 17 30 1021.4 0 17.6 25.6 37.9 99.3 90.2 309.3
08/05 06:50 10.2 79 7.52 6.7 20 24 1021.5 0 17.4 25.5 37.6 98.3 89.0 305.1
08/05 06:40 10.1 79 7.47 6.6 11 13 1021.4 0 17.3 25.4 37.4 97.9 88.5 303.1
08/05 06:30 10.2 79 7.52 6.7 17 26 1021.3 0 17.4 25.5 37.5 98.3 89.0 305.0
08/05 06:20 10.2 78 7.42 6.5 17 20 1021.4 0 17.2 25.3 37.1 97.2 87.7 300.4
08/05 06:10 10.1 78 7.38 6.4 17 20 1021.4 0 17.1 25.3 37.0 96.9 87.3 298.9
08/05 06:00 10.1 79 7.47 6.6 15 22 1021.4 0 17.3 25.4 37.4 97.9 88.5 303.1
08/05 05:50 10.2 78 7.42 6.5 15 19 1021.3 0 17.2 25.3 37.1 97.2 87.7 300.4
08/05 05:40 10.2 77 7.33 6.4 15 19 1021.4 0 17.0 25.2 36.8 96.2 86.5 296.2
08/05 05:30 10.2 77 7.33 6.4 15 22 1021.2 0 17.0 25.2 36.8 96.2 86.5 296.1
08/05 05:20 10.1 77 7.28 6.3 15 17 1021.2 0 16.9 25.1 36.6 95.8 85.9 294.2
08/05 05:10 10.2 76 7.23 6.2 13 13 1021.2 0 16.8 25.0 36.4 95.1 85.1 291.5
08/05 05:00 10.1 76 7.19 6.1 13 17 1021.2 0 16.7 25.0 36.2 94.8 84.7 290.0
08/05 04:50 10.1 77 7.28 6.3 9 9 1021.1 0 16.9 25.1 36.6 95.8 85.9 294.2
08/05 04:40 10.1 76 7.19 6.1 17 20 1021.1 0 16.7 25.0 36.2 94.8 84.7 290.0
08/05 04:30 10 77 7.24 6.2 9 15 1021 0 16.8 25.1 36.5 95.5 85.5 292.6
08/05 04:20 9.7 78 7.19 6.1 9 11 1021 0 16.8 25.1 36.4 95.3 85.1 291.4
08/05 04:10 9.6 80 7.33 6.3 6 6 1021 0 17.1 25.3 37.0 96.9 87.1 298.4
08/05 04:00 9.5 81 7.38 6.4 9 15 1021 0 17.2 25.4 37.3 97.6 87.9 301.1
08/05 03:50 9.5 81 7.38 6.4 11 13 1021.1 0 17.2 25.4 37.3 97.6 87.9 301.1
08/05 03:40 9.5 81 7.38 6.4 15 19 1021.2 0 17.2 25.4 37.3 97.6 87.9 301.1
08/05 03:30 9.5 81 7.38 6.4 17 24 1021.2 0 17.2 25.4 37.3 97.6 87.9 301.1
08/05 03:20 9.6 80 7.33 6.3 15 19 1021.2 0 17.1 25.3 37.0 96.9 87.1 298.4
08/05 03:10 9.4 81 7.33 6.3 13 13 1021.3 0 17.1 25.4 37.1 97.2 87.4 299.2
08/05 03:00 9.6 79 7.24 6.1 9 20 1021.3 0 16.9 25.2 36.7 96.0 85.9 294.2
08/05 02:50 9.5 79 7.19 6 9 11 1021.3 0 16.8 25.1 36.5 95.6 85.4 292.2
08/05 02:40 9.5 79 7.19 6 13 15 1021.5 0 16.8 25.1 36.5 95.6 85.4 292.3
08/05 02:30 9.5 80 7.28 6.2 7 11 1021.4 0 17.0 25.3 36.9 96.5 86.6 296.5
08/05 02:20 9.5 79 7.19 6 9 11 1021.5 0 16.8 25.1 36.5 95.6 85.4 292.3
08/05 02:10 9.5 79 7.19 6 7 9 1021.5 0 16.8 25.1 36.5 95.6 85.4 292.3
08/05 02:00 9.6 78 7.15 6 13 19 1021.6 0 16.7 25.1 36.3 95.0 84.8 290.1
08/05 01:50 9.5 78 7.1 5.9 15 19 1021.6 0 16.6 25.0 36.2 94.6 84.2 288.1
08/05 01:40 9.4 78 7.06 5.8 11 11 1021.7 0 16.5 25.0 36.1 94.3 83.8 286.6
08/05 01:30 9.5 78 7.1 5.9 6 15 1021.7 0 16.6 25.0 36.2 94.6 84.2 288.1
08/05 01:20 9.4 77 6.97 5.6 6 7 1021.9 0 16.3 24.8 35.7 93.4 82.6 282.5
08/05 01:10 9.5 76 6.92 5.5 7 9 1021.9 0 16.2 24.7 35.5 92.7 81.8 279.8
08/05 01:00 9.4 76 6.88 5.4 6 9 1022 0 16.1 24.7 35.4 92.4 81.4 278.3
08/05 00:50 9.6 74 6.78 5.2 2 4 1021.9 0 15.9 24.5 34.9 91.1 79.9 273.0
08/05 00:40 9.5 76 6.92 5.5 7 9 1022.1 0 16.2 24.7 35.5 92.7 81.9 279.9
08/05 00:30 9.5 75 6.83 5.3 9 17 1022.2 0 16.0 24.6 35.1 91.8 80.7 275.7
08/05 00:20 9.5 74 6.74 5.1 7 9 1022.3 0 15.8 24.4 34.8 90.8 79.5 271.6
08/05 00:10 9.4 75 6.79 5.2 9 11 1022.2 0 15.9 24.5 35.0 91.5 80.3 274.2
08/05 00:00 9.2 76 6.79 5.2 7 11 1022.5 0 15.9 24.6 35.1 91.7 80.5 275.0
07/05 23:50 9.2 76 6.79 5.2 7 9 1022.6 0 15.9 24.6 35.1 91.7 80.5 275.0
07/05 23:40 9.2 75 6.7 5 7 7 1022.6 0 15.7 24.5 34.7 90.8 79.3 270.8
07/05 23:30 9.2 75 6.7 5 9 15 1022.6 0 15.7 24.5 34.7 90.8 79.3 270.8
07/05 23:20 9 76 6.7 5 11 13 1022.6 0 15.7 24.5 34.8 91.0 79.5 271.5
07/05 23:10 8.6 79 6.79 5.2 9 11 1022.9 0 15.9 24.8 35.4 92.5 81.1 277.2
07/05 23:00 8.4 77 6.53 4.6 6 7 1022.8 0 15.4 24.4 34.4 89.9 77.9 265.7
07/05 22:50 8.6 77 6.62 4.8 7 9 1022.8 0 15.6 24.5 34.7 90.6 78.9 269.2
07/05 22:40 8.7 76 6.58 4.7 4 6 1022.8 0 15.5 24.4 34.5 90.1 78.2 267.0
07/05 22:30 8.5 77 6.58 4.7 9 17 1022.8 0 15.5 24.5 34.6 90.3 78.4 267.7
07/05 22:20 8.9 75 6.57 4.7 9 9 1023 0 15.5 24.4 34.4 89.8 77.9 266.0
07/05 22:10 9.2 74 6.61 4.8 13 15 1023.2 0 15.5 24.4 34.4 89.9 78.2 266.8
07/05 22:00 9.3 73 6.56 4.7 11 19 1023.3 0 15.4 24.2 34.2 89.2 77.4 264.2
07/05 21:50 9.3 72 6.47 4.5 11 13 1023.3 0 15.2 24.1 33.8 88.3 76.2 260.1
07/05 21:40 9.2 73 6.52 4.6 13 15 1023.2 0 15.3 24.2 34.1 88.9 77.0 262.7
07/05 21:30 9.1 73 6.48 4.5 13 17 1023.2 0 15.3 24.2 33.9 88.6 76.6 261.2
07/05 21:20 9.2 73 6.52 4.6 13 15 1023.2 0 15.3 24.2 34.1 88.9 77.0 262.7
07/05 21:10 9.2 73 6.52 4.6 13 19 1023.2 0 15.3 24.2 34.1 88.9 77.0 262.7
07/05 21:00 9.1 73 6.48 4.5 15 24 1023.2 0 15.3 24.2 33.9 88.6 76.6 261.2
07/05 20:50 8.8 73 6.36 4.2 15 20 1023.2 0 15.0 24.1 33.6 87.7 75.3 256.7
07/05 20:40 8.7 72 6.23 3.9 15 20 1023.1 0 14.7 23.9 33.1 86.4 73.7 251.0
07/05 20:30 8.6 71 6.1 3.6 13 19 1022.9 0 14.5 23.7 32.6 85.1 72.1 245.4
07/05 20:20 8.4 72 6.11 3.7 13 20 1023 0 14.5 23.8 32.8 85.4 72.4 246.5
07/05 20:10 8.8 69 6.01 3.4 13 15 1023 0 14.3 23.5 32.2 84.0 70.7 240.7
07/05 20:00 9.2 68 6.07 3.6 15 20 1023 0 14.4 23.5 32.3 84.2 71.1 242.2

Last Refresh: 08-May-2026 12:08:17

Bureau of Meteorology